Airfield :
LOGIN :

Register | Disclaimer

   EN    FR    IT 

 










Legend :    VFR   Marginal VFR   IFR   Intensive IFR   Very Intensive IFR
Visi :
Ceiling :
>= 8 km
>= 3000ft
5 to 8 km
1000 to 3000 ft
1500m to 5 km
500 to 1000 ft
800 to 1500m
200 to 500 ft
< 800m
< 200 ft
Symbols :   Thunderstorms  Fog  Heavy snow  Heavy precipitations  Wind > 20 kt
SIGMETs :     Misc.  Thunderstorms  Icing  Turbulence  Mountain Waves  Volcanic Ashes






- Airport Elevation : 39 ft
- IATA code : ANR


EBAW - Anvers / Antwerpen Deurne

CURRENT METAR :
  • 192120Z AUTO 08006KT 040V110 3000 RA SCT002/// BKN003/// BKN043/// 18/16 Q1009

EXPIRED METARs :
  • 192050Z 04008KT 350V070 9999 -SHRA FEW040CB 18/16 Q1008 TEMPO VRB22G36KT 2000 TSRA BKN008
  • 192020Z 03008KT 360V060 9999 FEW040CB 19/16 Q1009 TEMPO VRB22G36KT 2000 TSRA BKN008
  • 191950Z 36005KT 330V040 CAVOK 19/16 Q1010 TEMPO VRB22G36KT 2000 TSRA BKN008
  • 191920Z 02006KT CAVOK 19/16 Q1010 NOSIG
  • 191850Z 06007KT 020V080 CAVOK 19/16 Q1011 NOSIG

TAF TAF EBAW
Valid from the 19 at 21:00 until the 20 at 06:00 UTC


192000Z 1921/2006 04010KT 9999 SCT040
PROB40
TEMPO 1921/1924 VRB22G36KT 3000 TSRAGR BKN008 BKN035CB
BECMG 2000/2002 32005KT 4500 BR SCT008 BKN012
PROB30
TEMPO 2000/2006 2500 BKN005
BECMG 2004/2006 22010KT



MET'MAP, your aeronautical weather chart ! - Copyright ORBIFLY December 2007 - Disclaimer

ORBIFLY MET'MAP TEAM :

Programming & Development : Alexandra Zaïnal
Concept & original design : Baudouin d'Aumeries
Assistance for programming : Marc-Olivier Méhu
Technical & hardware support : Manuel Goepfert

Contact : metmap@orbifly.com




SOURCES & CREDITS :

   NOAA